createdAt,value
2022-08-07T00:00:14.446Z,11.14
2022-08-07T00:02:44.584Z,11.01
2022-08-07T00:05:14.348Z,10.80
2022-08-07T00:07:46.402Z,10.70
2022-08-07T00:10:26.034Z,10.83
2022-08-07T00:13:00.607Z,10.74
2022-08-07T00:15:37.644Z,10.59
2022-08-07T00:18:19.247Z,11.00
2022-08-07T00:20:50.078Z,10.83
2022-08-07T00:23:22.111Z,10.84
2022-08-07T00:26:00.025Z,11.19
2022-08-07T00:28:34.097Z,11.23
2022-08-07T00:31:06.197Z,11.16
2022-08-07T00:33:43.042Z,11.19
2022-08-07T00:36:17.135Z,11.36
2022-08-07T00:38:49.318Z,11.38
2022-08-07T00:41:28.525Z,11.18
2022-08-07T00:43:58.872Z,11.30
2022-08-07T00:46:33.014Z,11.30
2022-08-07T00:49:04.286Z,11.29
2022-08-07T00:51:58.378Z,11.21
2022-08-07T00:54:26.409Z,11.28
2022-08-07T00:56:56.067Z,11.25
2022-08-07T00:59:35.491Z,11.19
2022-08-07T01:02:14.130Z,10.97
2022-08-07T01:04:58.411Z,10.98
2022-08-07T01:07:31.178Z,10.85
2022-08-07T01:10:05.910Z,10.72
2022-08-07T01:12:38.659Z,10.59
2022-08-07T01:15:11.885Z,10.78
2022-08-07T01:17:46.568Z,10.94
2022-08-07T01:20:17.588Z,10.72
2022-08-07T01:23:00.777Z,10.69
2022-08-07T01:25:55.176Z,10.76
2022-08-07T01:28:25.882Z,10.69
2022-08-07T01:30:58.765Z,10.62
2022-08-07T01:33:47.647Z,10.69
2022-08-07T01:36:18.175Z,10.85
2022-08-07T01:38:50.331Z,10.88
2022-08-07T01:41:26.174Z,10.74
2022-08-07T01:43:56.679Z,10.63
2022-08-07T01:46:26.355Z,10.65
2022-08-07T01:48:56.857Z,10.67
2022-08-07T01:52:01.153Z,10.53
2022-08-07T01:54:36.535Z,10.59
2022-08-07T01:57:20.739Z,10.59
2022-08-07T01:59:57.364Z,10.66
2022-08-07T02:02:32.482Z,10.69
2022-08-07T02:05:07.080Z,10.89
2022-08-07T02:07:50.258Z,10.88
2022-08-07T02:10:26.578Z,10.84
2022-08-07T02:13:00.327Z,10.52
2022-08-07T02:15:31.158Z,10.33
2022-08-07T02:18:04.479Z,10.40
2022-08-07T02:20:36.315Z,10.54
2022-08-07T02:23:07.952Z,10.69
2022-08-07T02:26:26.721Z,10.69
2022-08-07T02:28:32.590Z,10.67
2022-08-07T02:31:10.320Z,10.55
2022-08-07T02:34:01.665Z,10.31
2022-08-07T02:36:41.420Z,10.29
2022-08-07T02:39:16.640Z,10.49
2022-08-07T02:41:54.522Z,10.57
2022-08-07T02:44:26.868Z,10.26
2022-08-07T02:47:01.361Z,10.49
2022-08-07T02:49:58.466Z,10.52
2022-08-07T02:52:31.194Z,10.29
2022-08-07T02:55:04.087Z,10.18
2022-08-07T02:57:39.233Z,10.26
2022-08-07T03:00:11.221Z,10.26
2022-08-07T03:02:54.594Z,10.11
2022-08-07T03:05:29.089Z,9.92
2022-08-07T03:08:07.085Z,9.99
2022-08-07T03:10:46.665Z,9.80
2022-08-07T03:13:20.286Z,9.69
2022-08-07T03:15:56.345Z,9.63
2022-08-07T03:18:34.965Z,9.51
2022-08-07T03:21:08.208Z,9.57
2022-08-07T03:24:19.406Z,9.49
2022-08-07T03:26:31.822Z,9.62
2022-08-07T03:29:05.317Z,9.98
2022-08-07T03:31:43.565Z,10.05
2022-08-07T03:34:18.746Z,10.00
2022-08-07T03:36:53.708Z,9.95
2022-08-07T03:39:59.055Z,9.56
2022-08-07T03:42:14.277Z,9.48
2022-08-07T03:44:53.202Z,9.27
2022-08-07T03:47:23.592Z,9.22
2022-08-07T03:49:53.756Z,9.44
2022-08-07T03:52:26.455Z,9.90
2022-08-07T03:54:57.416Z,9.97
2022-08-07T03:58:32.941Z,10.07
2022-08-07T04:00:29.289Z,9.73
2022-08-07T04:03:04.035Z,9.81
2022-08-07T04:05:39.548Z,9.79
2022-08-07T04:08:13.145Z,9.65
2022-08-07T04:10:54.243Z,9.63
2022-08-07T04:14:10.267Z,9.69
2022-08-07T04:16:32.283Z,9.57
2022-08-07T04:19:12.644Z,9.66
2022-08-07T04:21:58.782Z,9.81
2022-08-07T04:24:30.610Z,10.03
2022-08-07T04:27:03.570Z,9.78
2022-08-07T04:29:49.025Z,10.00
2022-08-07T04:32:33.869Z,10.31
2022-08-07T04:35:06.329Z,10.27
2022-08-07T04:38:01.072Z,10.20
2022-08-07T04:40:30.075Z,10.22
2022-08-07T04:43:03.291Z,10.46
2022-08-07T04:46:00.348Z,10.25
2022-08-07T04:48:39.989Z,10.43
2022-08-07T04:51:27.057Z,10.73
2022-08-07T04:54:06.293Z,10.62
2022-08-07T04:58:11.026Z,10.60
2022-08-07T05:00:12.343Z,10.40
2022-08-07T05:02:30.654Z,10.33
2022-08-07T05:05:51.877Z,10.63
2022-08-07T05:08:01.765Z,10.73
2022-08-07T05:10:35.048Z,10.81
2022-08-07T05:14:52.818Z,10.74
2022-08-07T05:16:04.799Z,10.80
2022-08-07T05:18:37.417Z,10.79
2022-08-07T05:21:12.612Z,10.88
2022-08-07T05:23:48.837Z,10.89
2022-08-07T05:26:24.177Z,10.92
2022-08-07T05:28:55.699Z,10.98
2022-08-07T05:31:35.384Z,11.05
2022-08-07T05:34:11.038Z,11.11
2022-08-07T05:36:49.046Z,11.20
2022-08-07T05:40:06.394Z,11.30
2022-08-07T05:42:14.110Z,11.39
2022-08-07T05:44:46.795Z,11.52
2022-08-07T05:47:38.505Z,11.60
2022-08-07T05:50:24.342Z,11.68
2022-08-07T05:52:56.374Z,11.75
2022-08-07T05:56:03.479Z,11.85
2022-08-07T05:58:17.619Z,11.96
2022-08-07T06:01:06.193Z,12.11
2022-08-07T06:03:53.590Z,12.23
2022-08-07T06:06:29.915Z,12.35
2022-08-07T06:09:05.216Z,12.47
2022-08-07T06:11:35.549Z,12.52
2022-08-07T06:14:12.855Z,12.63
2022-08-07T06:16:56.200Z,12.73
2022-08-07T06:19:52.334Z,12.87
2022-08-07T06:22:23.938Z,12.98
2022-08-07T06:25:01.514Z,13.11
2022-08-07T06:27:44.350Z,13.21
2022-08-07T06:30:31.926Z,13.34
2022-08-07T06:33:09.993Z,13.40
2022-08-07T06:35:47.723Z,13.50
2022-08-07T06:38:35.775Z,13.60
2022-08-07T06:41:13.198Z,13.71
2022-08-07T06:43:46.146Z,13.80
2022-08-07T06:46:31.427Z,13.96
2022-08-07T06:49:04.962Z,14.01
2022-08-07T06:51:49.320Z,14.16
2022-08-07T06:55:32.991Z,14.28
2022-08-07T06:57:13.606Z,14.35
2022-08-07T07:00:12.532Z,14.45
2022-08-07T07:02:54.370Z,14.51
2022-08-07T07:06:05.764Z,14.65
2022-08-07T07:08:18.608Z,14.75
2022-08-07T07:10:57.357Z,14.79
2022-08-07T07:13:55.743Z,14.94
2022-08-07T07:16:27.628Z,15.06
2022-08-07T07:19:11.427Z,15.11
2022-08-07T07:22:11.289Z,15.05
2022-08-07T07:24:42.930Z,15.16
2022-08-07T07:27:14.090Z,15.27
2022-08-07T07:30:09.639Z,15.34
2022-08-07T07:32:42.680Z,15.34
2022-08-07T07:35:13.939Z,15.39
2022-08-07T07:37:52.576Z,15.50
2022-08-07T07:40:28.683Z,15.56
2022-08-07T07:43:11.670Z,15.66
2022-08-07T07:46:37.327Z,15.70
2022-08-07T07:48:42.775Z,15.78
2022-08-07T07:51:15.711Z,15.79
2022-08-07T07:53:51.929Z,15.87
2022-08-07T07:56:29.996Z,16.13
2022-08-07T07:59:02.031Z,16.31
2022-08-07T08:02:02.468Z,16.04
2022-08-07T08:04:27.492Z,16.21
2022-08-07T08:07:00.630Z,16.16
2022-08-07T08:09:32.821Z,16.23
2022-08-07T08:12:51.205Z,16.26
2022-08-07T08:15:13.011Z,16.28
2022-08-07T08:17:57.221Z,16.39
2022-08-07T08:20:32.087Z,16.45
2022-08-07T08:23:14.972Z,16.71
2022-08-07T08:26:02.183Z,16.73
2022-08-07T08:28:38.009Z,16.69
2022-08-07T08:31:15.874Z,16.71
2022-08-07T08:33:55.576Z,16.95
2022-08-07T08:36:30.682Z,17.01
2022-08-07T08:39:02.809Z,17.00
2022-08-07T08:41:58.762Z,16.99
2022-08-07T08:44:33.889Z,17.22
2022-08-07T08:47:09.826Z,17.10
2022-08-07T08:50:04.531Z,17.22
2022-08-07T08:52:40.734Z,17.27
2022-08-07T08:55:55.064Z,17.23
2022-08-07T08:58:24.791Z,17.24
2022-08-07T09:01:14.789Z,17.18
2022-08-07T09:03:55.313Z,17.39
2022-08-07T09:06:42.690Z,17.57
2022-08-07T09:09:36.746Z,17.73
2022-08-07T09:12:30.607Z,17.89
2022-08-07T09:16:23.130Z,17.86
2022-08-07T09:18:16.851Z,17.90
2022-08-07T09:21:02.222Z,17.80
2022-08-07T09:24:33.628Z,18.05
2022-08-07T09:26:47.660Z,18.36
2022-08-07T09:30:05.999Z,18.44
2022-08-07T09:32:26.488Z,18.37
2022-08-07T09:35:04.764Z,18.29
2022-08-07T09:38:10.568Z,18.23
2022-08-07T09:40:53.287Z,17.87
2022-08-07T09:44:03.357Z,18.20
2022-08-07T09:47:52.711Z,18.10
2022-08-07T09:50:02.529Z,18.28
2022-08-07T09:52:34.228Z,18.30
2022-08-07T09:55:17.040Z,18.55
2022-08-07T09:58:14.626Z,18.35
2022-08-07T10:00:57.472Z,18.49
2022-08-07T10:04:05.603Z,18.11
2022-08-07T10:07:24.046Z,18.05
2022-08-07T10:10:06.310Z,18.37
2022-08-07T10:13:00.309Z,18.51
2022-08-07T10:15:49.653Z,18.79
2022-08-07T10:18:43.493Z,18.84
2022-08-07T10:21:50.415Z,18.75
2022-08-07T10:24:27.645Z,19.06
2022-08-07T10:27:10.524Z,18.70
2022-08-07T10:29:52.515Z,18.53
2022-08-07T10:32:53.021Z,18.91
2022-08-07T10:35:56.771Z,19.06
2022-08-07T10:38:46.415Z,19.39
2022-08-07T10:41:51.862Z,19.44
2022-08-07T10:44:19.463Z,19.56
2022-08-07T10:47:06.059Z,19.89
2022-08-07T10:49:49.622Z,20.10
2022-08-07T10:52:31.814Z,19.90
2022-08-07T10:55:26.542Z,19.83
2022-08-07T10:58:16.510Z,19.23
2022-08-07T11:00:58.289Z,18.86
2022-08-07T11:03:52.652Z,18.85
2022-08-07T11:06:32.905Z,18.85
2022-08-07T11:09:11.279Z,18.65
2022-08-07T11:11:51.836Z,18.57
2022-08-07T11:14:44.399Z,18.76
2022-08-07T11:17:23.431Z,18.87
2022-08-07T11:20:17.535Z,19.33
2022-08-07T11:22:54.347Z,19.70
2022-08-07T11:25:36.283Z,19.28
2022-08-07T11:28:16.595Z,19.34
2022-08-07T11:30:55.949Z,19.10
2022-08-07T11:33:59.828Z,18.82
2022-08-07T11:36:42.578Z,18.68
2022-08-07T11:39:20.538Z,19.15
2022-08-07T11:42:01.377Z,19.63
2022-08-07T11:44:51.992Z,20.10
2022-08-07T11:47:38.907Z,20.16
2022-08-07T11:50:35.124Z,19.81
2022-08-07T11:53:22.015Z,19.89
2022-08-07T11:56:12.038Z,20.20
2022-08-07T11:59:02.906Z,19.55
2022-08-07T12:02:00.754Z,19.56
2022-08-07T12:04:53.396Z,19.46
2022-08-07T12:07:27.852Z,19.48
2022-08-07T12:10:17.306Z,20.12
2022-08-07T12:12:54.680Z,20.41
2022-08-07T12:15:46.637Z,20.65
2022-08-07T12:18:29.778Z,20.53
2022-08-07T12:21:04.982Z,20.37
2022-08-07T12:24:05.247Z,20.66
2022-08-07T12:26:46.618Z,21.28
2022-08-07T12:29:38.882Z,21.35
2022-08-07T12:32:16.377Z,21.63
2022-08-07T12:34:56.203Z,21.28
2022-08-07T12:37:27.827Z,21.43
2022-08-07T12:40:46.892Z,20.87
2022-08-07T12:44:02.255Z,20.42
2022-08-07T12:46:12.380Z,20.20
2022-08-07T12:48:53.077Z,20.26
2022-08-07T12:51:46.685Z,20.43
2022-08-07T12:54:37.839Z,20.21
2022-08-07T12:57:09.993Z,20.24
2022-08-07T12:59:55.396Z,20.51
2022-08-07T13:02:47.169Z,20.60
2022-08-07T13:06:05.005Z,21.05
2022-08-07T13:08:42.063Z,21.36
2022-08-07T13:11:27.535Z,20.82
2022-08-07T13:14:05.326Z,20.61
2022-08-07T13:16:46.717Z,21.41
2022-08-07T13:19:46.007Z,22.15
2022-08-07T13:22:27.708Z,23.19
2022-08-07T13:25:02.486Z,23.03
2022-08-07T13:28:13.765Z,22.50
2022-08-07T13:30:40.056Z,22.51
2022-08-07T13:34:31.002Z,23.59
2022-08-07T13:36:17.667Z,23.12
2022-08-07T13:38:54.426Z,22.45
2022-08-07T13:41:31.162Z,21.97
2022-08-07T13:44:05.143Z,21.35
2022-08-07T13:46:49.331Z,21.21
2022-08-07T13:50:32.957Z,21.20
2022-08-07T13:52:26.424Z,21.41
2022-08-07T13:55:10.916Z,22.69
2022-08-07T13:57:48.726Z,23.11
2022-08-07T14:00:50.543Z,22.52
2022-08-07T14:03:29.549Z,22.37
2022-08-07T14:06:18.917Z,21.90
2022-08-07T14:08:53.605Z,21.71
2022-08-07T14:11:25.622Z,22.06
2022-08-07T14:13:57.866Z,22.65
2022-08-07T14:16:33.024Z,22.95
2022-08-07T14:19:06.134Z,23.16
2022-08-07T14:22:03.155Z,22.73
2022-08-07T14:24:37.242Z,22.60
2022-08-07T14:28:09.950Z,22.42
2022-08-07T14:30:12.097Z,21.84
2022-08-07T14:32:46.015Z,22.06
2022-08-07T14:35:43.246Z,22.18
2022-08-07T14:38:26.482Z,22.73
2022-08-07T14:41:04.032Z,22.48
2022-08-07T14:43:58.341Z,22.35
2022-08-07T14:46:31.297Z,22.33
2022-08-07T14:52:04.723Z,21.99
2022-08-07T14:54:43.495Z,22.14
2022-08-07T14:57:19.065Z,22.09
2022-08-07T15:00:05.297Z,22.07
2022-08-07T15:02:39.119Z,22.34
2022-08-07T15:08:00.785Z,21.89
2022-08-07T15:10:34.007Z,21.96
2022-08-07T15:13:12.262Z,21.62
2022-08-07T15:15:59.998Z,21.80
2022-08-07T15:18:36.151Z,21.64
2022-08-07T15:21:58.669Z,21.44
2022-08-07T15:25:15.913Z,21.50
2022-08-07T15:27:15.331Z,21.06
2022-08-07T15:30:09.796Z,21.06
2022-08-07T15:32:39.162Z,21.07
2022-08-07T15:36:02.430Z,21.11
2022-08-07T15:41:24.310Z,21.28
2022-08-07T15:44:07.019Z,21.35
2022-08-07T15:50:05.069Z,21.37
2022-08-07T15:52:30.200Z,21.38
2022-08-07T15:55:02.305Z,21.28
2022-08-07T15:57:47.481Z,21.32
2022-08-07T16:00:33.371Z,21.31
2022-08-07T16:03:06.353Z,21.26
2022-08-07T16:05:40.212Z,21.07
2022-08-07T16:08:31.178Z,20.89
2022-08-07T16:11:26.605Z,20.85
2022-08-07T16:14:09.987Z,20.89
2022-08-07T16:17:15.328Z,21.14
2022-08-07T16:20:04.289Z,21.08
2022-08-07T16:22:55.044Z,21.10
2022-08-07T16:25:52.414Z,21.16
2022-08-07T16:30:05.619Z,20.88
2022-08-07T16:31:51.183Z,20.98
2022-08-07T16:34:41.082Z,21.07
2022-08-07T16:38:04.470Z,21.11
2022-08-07T16:41:01.361Z,21.11
2022-08-07T16:44:02.315Z,21.05
2022-08-07T16:47:06.834Z,21.11
2022-08-07T16:50:20.329Z,20.97
2022-08-07T16:54:03.165Z,20.72
2022-08-07T16:56:04.608Z,21.07
2022-08-07T16:59:11.344Z,20.85
2022-08-07T17:01:41.149Z,20.78
2022-08-07T17:04:15.465Z,20.90
2022-08-07T17:07:13.646Z,20.46
2022-08-07T17:10:07.970Z,20.50
2022-08-07T17:12:46.766Z,20.61
2022-08-07T17:15:21.874Z,20.50
2022-08-07T17:18:18.744Z,20.36
2022-08-07T17:20:49.707Z,20.32
2022-08-07T17:23:42.725Z,20.25
2022-08-07T17:26:23.999Z,20.08
2022-08-07T17:30:12.598Z,19.87
2022-08-07T17:32:12.548Z,19.82
2022-08-07T17:35:50.246Z,19.71
2022-08-07T17:38:05.443Z,19.77
2022-08-07T17:40:50.571Z,19.87
2022-08-07T17:44:02.306Z,19.54
2022-08-07T17:46:21.086Z,19.55
2022-08-07T17:49:10.985Z,19.65
2022-08-07T17:51:49.277Z,19.55
2022-08-07T17:54:53.371Z,19.52
2022-08-07T17:57:59.175Z,19.43
2022-08-07T18:00:33.192Z,19.42
2022-08-07T18:03:18.322Z,19.33
2022-08-07T18:06:02.789Z,19.34
2022-08-07T18:09:01.146Z,19.26
2022-08-07T18:12:08.336Z,19.11
2022-08-07T18:14:37.419Z,19.05
2022-08-07T18:17:10.746Z,19.04
2022-08-07T18:21:09.538Z,18.94
2022-08-07T18:22:40.317Z,18.88
2022-08-07T18:25:23.841Z,18.89
2022-08-07T18:28:34.211Z,18.83
2022-08-07T18:31:08.537Z,18.73
2022-08-07T18:34:00.445Z,18.79
2022-08-07T18:36:37.749Z,18.85
2022-08-07T18:40:07.889Z,18.63
2022-08-07T18:42:16.301Z,18.47
2022-08-07T18:45:44.508Z,18.54
2022-08-07T18:48:00.678Z,18.48
2022-08-07T18:50:51.262Z,18.45
2022-08-07T18:53:39.196Z,18.44
2022-08-07T18:56:17.005Z,18.35
2022-08-07T18:58:57.675Z,18.33
2022-08-07T19:02:32.701Z,18.14
2022-08-07T19:04:54.365Z,18.17
2022-08-07T19:07:34.190Z,18.08
2022-08-07T19:10:10.923Z,18.03
2022-08-07T19:12:58.281Z,18.18
2022-08-07T19:16:04.249Z,18.11
2022-08-07T19:18:44.853Z,17.91
2022-08-07T19:21:44.039Z,17.84
2022-08-07T19:24:30.630Z,17.72
2022-08-07T19:28:30.911Z,17.63
2022-08-07T19:31:06.122Z,17.43
2022-08-07T19:32:47.927Z,17.31
2022-08-07T19:35:24.648Z,17.30
2022-08-07T19:37:59.717Z,17.28
2022-08-07T19:40:33.487Z,17.15
2022-08-07T19:43:10.835Z,17.11
2022-08-07T19:46:08.256Z,16.95
2022-08-07T19:48:42.154Z,16.94
2022-08-07T19:51:20.593Z,16.88
2022-08-07T19:54:31.100Z,16.83
2022-08-07T19:58:02.754Z,16.74
2022-08-07T19:59:50.556Z,16.55
2022-08-07T20:02:30.507Z,16.49
2022-08-07T20:05:03.124Z,16.41
2022-08-07T20:07:47.397Z,16.45
2022-08-07T20:10:36.578Z,16.40
2022-08-07T20:13:23.016Z,16.51
2022-08-07T20:15:55.365Z,16.37
2022-08-07T20:18:32.721Z,16.30
2022-08-07T20:21:14.305Z,16.17
2022-08-07T20:23:49.446Z,16.21
2022-08-07T20:26:32.283Z,16.26
2022-08-07T20:29:10.117Z,16.23
2022-08-07T20:31:46.431Z,16.02
2022-08-07T20:34:34.427Z,15.93
2022-08-07T20:37:09.091Z,15.97
2022-08-07T20:40:03.884Z,15.83
2022-08-07T20:42:35.302Z,15.76
2022-08-07T20:45:33.419Z,15.73
2022-08-07T20:47:59.175Z,15.53
2022-08-07T20:50:30.632Z,15.60
2022-08-07T20:53:00.697Z,15.42
2022-08-07T20:55:32.152Z,15.34
2022-08-07T20:58:09.055Z,15.15
2022-08-07T21:00:48.854Z,15.09
2022-08-07T21:03:25.755Z,15.17
2022-08-07T21:05:58.299Z,15.07
2022-08-07T21:08:37.035Z,15.09
2022-08-07T21:11:12.053Z,15.06
2022-08-07T21:14:29.890Z,14.96
2022-08-07T21:16:46.749Z,15.10
2022-08-07T21:19:32.540Z,15.08
2022-08-07T21:22:19.821Z,15.06
2022-08-07T21:24:58.543Z,15.06
2022-08-07T21:27:39.606Z,14.92
2022-08-07T21:30:15.118Z,14.60
2022-08-07T21:32:54.854Z,14.37
2022-08-07T21:36:04.087Z,14.41
2022-08-07T21:38:27.836Z,14.35
2022-08-07T21:41:09.549Z,14.35
2022-08-07T21:43:55.123Z,14.43
2022-08-07T21:46:33.606Z,14.44
2022-08-07T21:49:14.533Z,14.38
2022-08-07T21:52:06.706Z,14.52
2022-08-07T21:54:55.873Z,14.40
2022-08-07T21:57:39.931Z,14.42
2022-08-07T22:00:23.198Z,14.43
2022-08-07T22:03:05.818Z,14.47
2022-08-07T22:05:44.607Z,14.51
2022-08-07T22:08:18.736Z,14.43
2022-08-07T22:10:53.515Z,14.27
2022-08-07T22:13:51.766Z,14.11
2022-08-07T22:16:42.255Z,14.14
2022-08-07T22:19:23.488Z,14.14
2022-08-07T22:22:17.584Z,14.18
2022-08-07T22:24:58.764Z,13.79
2022-08-07T22:27:33.979Z,13.78
2022-08-07T22:30:27.154Z,14.09
2022-08-07T22:33:06.269Z,14.06
2022-08-07T22:35:45.099Z,13.87
2022-08-07T22:38:25.707Z,13.80
2022-08-07T22:40:59.809Z,13.71
2022-08-07T22:43:34.778Z,13.80
2022-08-07T22:47:02.060Z,13.85
2022-08-07T22:49:33.671Z,13.81
2022-08-07T22:52:36.979Z,13.79
2022-08-07T22:55:39.912Z,13.68
2022-08-07T22:58:27.708Z,13.50
2022-08-07T23:01:10.459Z,13.46
2022-08-07T23:03:58.193Z,13.51
2022-08-07T23:06:42.662Z,13.39
2022-08-07T23:10:00.855Z,13.40
2022-08-07T23:12:34.323Z,13.64
2022-08-07T23:15:11.891Z,13.63
2022-08-07T23:18:23.079Z,13.51
2022-08-07T23:21:16.177Z,13.40
2022-08-07T23:24:06.428Z,13.18
2022-08-07T23:26:54.874Z,13.39
2022-08-07T23:30:39.546Z,13.43
2022-08-07T23:34:35.500Z,13.43
2022-08-07T23:35:59.226Z,13.42
2022-08-07T23:38:36.872Z,13.42
2022-08-07T23:41:20.999Z,13.27
2022-08-07T23:44:17.174Z,13.23
2022-08-07T23:47:16.161Z,13.18
2022-08-07T23:50:17.427Z,13.00
2022-08-07T23:53:01.039Z,12.71
2022-08-07T23:55:55.389Z,12.83
2022-08-07T23:58:29.743Z,13.02
